Time;durP1;ratioP1;P1;durP2;ratioP2;P2;SDS_P1;SDS_P2;PMS_P1;PMS_P2;Temp;Humidity;BMP_temperature;BMP_pressure;BME280_temperature;BME280_humidity;BME280_pressure;Samples;Min_cycle;Max_cycle;Signal;HPM_P1;HPM_P2
2023/06/01 00:02:01;;;;;;;14.93;3.90;;;11.70;99.90;;;;;;5057197;28;20048;-81
2023/06/01 00:04:28;;;;;;;11.15;3.22;;;11.70;99.90;;;;;;5056629;28;20036;-81
2023/06/01 00:06:56;;;;;;;10.20;3.50;;;11.70;99.90;;;;;;5073118;28;20093;-81
2023/06/01 00:09:22;;;;;;;9.10;3.70;;;11.70;99.90;;;;;;5067438;28;20048;-81
2023/06/01 00:11:49;;;;;;;14.77;4.10;;;11.70;99.90;;;;;;5036729;28;20044;-81
2023/06/01 00:14:16;;;;;;;8.90;3.30;;;11.70;99.90;;;;;;5036834;28;20045;-81
2023/06/01 00:16:44;;;;;;;8.85;3.58;;;11.70;99.90;;;;;;5052931;28;20097;-81
2023/06/01 00:19:11;;;;;;;10.18;4.47;;;11.60;99.90;;;;;;5039211;28;20048;-81
2023/06/01 00:21:38;;;;;;;16.52;3.72;;;11.60;99.90;;;;;;5072496;28;20036;-81
2023/06/01 00:24:05;;;;;;;13.32;4.40;;;11.60;99.90;;;;;;5089968;28;20527;-81
2023/06/01 00:26:32;;;;;;;13.10;4.00;;;11.60;99.90;;;;;;5072569;28;20129;-81
2023/06/01 00:28:59;;;;;;;13.45;3.78;;;11.60;99.90;;;;;;5056888;28;20501;-81
2023/06/01 00:31:27;;;;;;;11.50;3.65;;;11.60;99.90;;;;;;5055612;28;20463;-81
2023/06/01 00:33:53;;;;;;;17.52;4.28;;;11.60;99.90;;;;;;5089192;28;20040;-81
2023/06/01 00:36:20;;;;;;;7.30;3.70;;;11.60;99.90;;;;;;5089574;28;20111;-81
2023/06/01 00:38:47;;;;;;;15.30;3.67;;;11.60;99.90;;;;;;5089767;28;20093;-81
2023/06/01 00:41:14;;;;;;;9.85;3.38;;;11.60;99.90;;;;;;5060062;28;20049;-81
2023/06/01 00:43:41;;;;;;;12.75;3.55;;;11.60;99.90;;;;;;5052621;28;20127;-81
2023/06/01 00:46:08;;;;;;;12.55;4.25;;;11.60;99.90;;;;;;5069596;28;20500;-81
2023/06/01 00:48:35;;;;;;;13.05;4.65;;;11.50;99.90;;;;;;5036954;28;20037;-81
2023/06/01 00:51:02;;;;;;;13.23;4.47;;;11.50;99.90;;;;;;5059733;28;20051;-81
2023/06/01 00:53:29;;;;;;;15.18;3.83;;;11.60;99.90;;;;;;5056264;28;20048;-81
2023/06/01 00:55:56;;;;;;;9.75;3.53;;;11.50;99.90;;;;;;5072837;28;20086;-81
2023/06/01 00:58:23;;;;;;;14.23;3.65;;;11.50;99.90;;;;;;5072634;28;20040;-80
2023/06/01 01:00:49;;;;;;;10.90;4.40;;;11.60;99.90;;;;;;5088639;28;20447;-81
2023/06/01 01:03:17;;;;;;;13.82;4.40;;;11.50;99.90;;;;;;5072999;28;20469;-81
2023/06/01 01:05:44;;;;;;;12.35;3.25;;;11.50;99.90;;;;;;5071874;28;20043;-81
2023/06/01 01:08:36;;;;;;;8.15;3.35;;;11.50;99.90;;;;;;5072323;28;20045;-81
2023/06/01 01:11:34;;;;;;;9.20;3.40;;;11.50;99.90;;;;;;5089046;28;20451;-81
2023/06/01 01:14:29;;;;;;;11.85;3.30;;;11.40;99.90;;;;;;5080661;28;20055;-81
2023/06/01 01:17:15;;;;;;;11.35;3.38;;;11.40;99.90;;;;;;5088658;28;20165;-81
2023/06/01 01:20:00;;;;;;;7.03;3.13;;;11.30;99.90;;;;;;5088456;28;20431;-81
2023/06/01 01:23:06;;;;;;;9.27;3.50;;;11.30;99.90;;;;;;5105556;28;20056;-81
2023/06/01 01:25:41;;;;;;;12.95;3.35;;;11.40;99.90;;;;;;5090759;28;20048;-81
2023/06/01 01:28:13;;;;;;;9.00;3.13;;;11.40;99.90;;;;;;5089314;28;20068;-81
2023/06/01 01:30:42;;;;;;;13.63;3.47;;;11.40;99.90;;;;;;5105330;28;20032;-81
2023/06/01 01:33:10;;;;;;;9.90;3.40;;;11.40;99.90;;;;;;5088694;28;20040;-81
2023/06/01 01:35:38;;;;;;;11.35;3.58;;;11.40;99.90;;;;;;5088292;28;20041;-81
2023/06/01 01:38:05;;;;;;;11.32;4.35;;;11.40;99.90;;;;;;5074190;28;20085;-81
2023/06/01 01:40:32;;;;;;;9.38;2.88;;;11.40;99.90;;;;;;5059624;28;20131;-81
2023/06/01 01:42:59;;;;;;;6.55;2.90;;;11.50;99.90;;;;;;5052742;28;20071;-81
2023/06/01 01:45:26;;;;;;;8.82;2.72;;;11.50;99.90;;;;;;5056151;28;20041;-81
2023/06/01 01:48:20;;;;;;;7.15;2.80;;;11.50;99.90;;;;;;5039237;28;20037;-81
2023/06/01 01:50:52;;;;;;;6.68;2.75;;;11.50;99.90;;;;;;5089093;28;20401;-81
2023/06/01 01:53:22;;;;;;;6.63;3.00;;;11.50;99.90;;;;;;5072573;28;20041;-81
2023/06/01 01:55:52;;;;;;;12.82;3.00;;;11.50;99.90;;;;;;5072047;28;20413;-81
2023/06/01 01:58:19;;;;;;;12.23;3.28;;;11.50;99.90;;;;;;5089262;28;20041;-81
2023/06/01 02:00:47;;;;;;;8.73;2.95;;;11.50;99.90;;;;;;5039623;28;20041;-81
2023/06/01 02:03:17;;;;;;;9.43;3.33;;;11.50;99.90;;;;;;5055943;28;20045;-81
2023/06/01 02:05:45;;;;;;;9.32;2.70;;;11.50;99.90;;;;;;5039177;28;20037;-82
2023/06/01 02:08:11;;;;;;;8.02;2.45;;;11.50;99.90;;;;;;5072012;28;20049;-81
2023/06/01 02:10:40;;;;;;;8.45;2.60;;;11.50;99.90;;;;;;5055764;28;20535;-80
2023/06/01 02:13:07;;;;;;;12.68;3.15;;;11.50;99.90;;;;;;5055457;28;20048;-80
2023/06/01 02:15:34;;;;;;;8.48;3.00;;;11.50;99.90;;;;;;5057770;28;20057;-81
2023/06/01 02:18:02;;;;;;;8.15;2.90;;;11.50;99.90;;;;;;5073493;28;20047;-81
2023/06/01 02:20:28;;;;;;;10.70;3.10;;;11.50;99.90;;;;;;5091510;28;20530;-80
2023/06/01 02:22:55;;;;;;;7.45;2.53;;;11.50;99.90;;;;;;5091761;28;20045;-80
2023/06/01 02:25:22;;;;;;;10.23;2.78;;;11.60;99.90;;;;;;5076491;28;20040;-80
2023/06/01 02:27:48;;;;;;;4.45;2.28;;;11.50;99.90;;;;;;5055233;28;20068;-81
2023/06/01 02:30:15;;;;;;;10.60;2.90;;;11.50;99.90;;;;;;5071911;28;20084;-81
2023/06/01 02:32:45;;;;;;;9.27;2.67;;;11.50;99.90;;;;;;5055082;28;20049;-81
2023/06/01 02:35:11;;;;;;;13.48;2.88;;;11.50;99.90;;;;;;5039359;28;20045;-80
2023/06/01 02:37:38;;;;;;;11.15;3.30;;;11.50;99.90;;;;;;5055357;28;20107;-81
2023/06/01 02:40:10;;;;;;;7.18;2.92;;;11.50;99.90;;;;;;5055302;28;20048;-80
2023/06/01 02:42:38;;;;;;;10.45;2.80;;;11.50;99.90;;;;;;5040024;28;20493;-80
2023/06/01 02:45:09;;;;;;;8.02;2.78;;;11.50;99.90;;;;;;5054785;28;20821;-80
2023/06/01 02:47:36;;;;;;;7.88;3.10;;;11.50;99.90;;;;;;5055345;28;20045;-80
2023/06/01 02:50:04;;;;;;;8.77;3.10;;;11.50;99.90;;;;;;5070950;28;20060;-80
2023/06/01 02:52:31;;;;;;;8.50;2.97;;;11.50;99.90;;;;;;5055316;28;20044;-80
2023/06/01 02:54:58;;;;;;;6.93;2.92;;;11.50;99.90;;;;;;5056244;28;20051;-80
2023/06/01 02:57:24;;;;;;;6.75;2.83;;;11.50;99.90;;;;;;5058589;28;20032;-80
2023/06/01 02:59:51;;;;;;;9.32;2.90;;;11.40;99.90;;;;;;5058479;28;20048;-80
2023/06/01 03:02:18;;;;;;;10.85;3.03;;;11.40;99.90;;;;;;5074350;28;20044;-80
2023/06/01 03:04:45;;;;;;;8.73;3.10;;;11.40;99.90;;;;;;5074788;28;20032;-80
2023/06/01 03:07:12;;;;;;;9.13;2.83;;;11.40;99.90;;;;;;5058098;28;20492;-80
2023/06/01 03:09:39;;;;;;;7.72;2.75;;;11.40;99.90;;;;;;5074973;28;20045;-80
2023/06/01 03:12:06;;;;;;;8.55;3.05;;;11.40;99.90;;;;;;5090992;28;20042;-80
2023/06/01 03:14:33;;;;;;;8.57;3.35;;;11.40;99.90;;;;;;5074020;28;20055;-80
2023/06/01 03:17:00;;;;;;;9.98;3.10;;;11.40;99.90;;;;;;5070158;28;20041;-80
2023/06/01 03:19:27;;;;;;;7.72;3.22;;;11.40;99.90;;;;;;5083454;28;20044;-80
2023/06/01 03:21:54;;;;;;;8.30;3.53;;;11.40;99.90;;;;;;5073877;28;20127;-80
2023/06/01 03:24:22;;;;;;;9.57;3.97;;;11.50;99.90;;;;;;5061004;28;20041;-80
2023/06/01 03:26:49;;;;;;;13.52;4.07;;;11.40;99.90;;;;;;5073618;28;20493;-80
2023/06/01 03:29:16;;;;;;;10.30;3.67;;;11.40;99.90;;;;;;5073166;28;20082;-80
2023/06/01 03:31:43;;;;;;;12.60;4.35;;;11.40;99.90;;;;;;5090013;28;20416;-80
2023/06/01 03:34:10;;;;;;;10.77;3.83;;;11.40;99.90;;;;;;5089714;28;20044;-81
2023/06/01 03:36:37;;;;;;;11.75;4.28;;;11.40;99.90;;;;;;5069991;28;20036;-80
2023/06/01 03:39:08;;;;;;;12.20;4.03;;;11.40;99.90;;;;;;5037054;28;20036;-80
2023/06/01 03:41:35;;;;;;;15.48;3.80;;;11.50;99.90;;;;;;5054123;28;20036;-80
2023/06/01 03:44:02;;;;;;;10.85;3.65;;;11.50;99.90;;;;;;5053182;28;20072;-80
2023/06/01 03:46:28;;;;;;;8.95;3.45;;;11.50;99.90;;;;;;5053450;28;20072;-80
2023/06/01 03:48:55;;;;;;;10.50;3.45;;;11.50;99.90;;;;;;5037359;28;20441;-80
2023/06/01 03:51:22;;;;;;;7.57;3.22;;;11.40;99.90;;;;;;5053870;28;20064;-80
2023/06/01 03:53:49;;;;;;;12.00;4.05;;;11.40;99.90;;;;;;5053935;28;20041;-79
2023/06/01 03:56:16;;;;;;;10.95;3.80;;;11.40;99.90;;;;;;5053751;28;20109;-80
2023/06/01 03:58:42;;;;;;;11.93;3.45;;;11.40;99.90;;;;;;5081718;28;20043;-80
2023/06/01 04:01:11;;;;;;;11.00;3.55;;;11.40;99.90;;;;;;5072106;28;20052;-80
2023/06/01 04:03:39;;;;;;;12.23;3.80;;;11.40;99.90;;;;;;5090611;28;20077;-80
2023/06/01 04:06:11;;;;;;;10.48;3.97;;;11.40;99.90;;;;;;5090043;28;20037;-80
2023/06/01 04:08:47;;;;;;;8.95;4.00;;;11.40;99.90;;;;;;5048669;28;20511;-80
2023/06/01 04:11:17;;;;;;;10.30;3.72;;;11.40;99.90;;;;;;5054206;28;20508;-80
2023/06/01 04:13:44;;;;;;;15.10;4.35;;;11.50;99.90;;;;;;5069729;28;20405;-80
2023/06/01 04:16:11;;;;;;;7.90;3.38;;;11.50;99.90;;;;;;5053030;28;20076;-81
2023/06/01 04:18:38;;;;;;;11.82;3.78;;;11.50;99.90;;;;;;5076592;28;20036;-81
2023/06/01 04:21:06;;;;;;;11.23;4.35;;;11.50;99.90;;;;;;5056372;28;20050;-81
2023/06/01 04:23:33;;;;;;;10.20;4.00;;;11.50;99.90;;;;;;5057561;28;20037;-81
2023/06/01 04:26:00;;;;;;;7.70;3.70;;;11.50;99.90;;;;;;5073112;28;20047;-80
2023/06/01 04:28:27;;;;;;;11.93;4.20;;;11.50;99.90;;;;;;5086519;28;20706;-81
2023/06/01 04:30:55;;;;;;;9.70;3.17;;;11.40;99.90;;;;;;5057922;28;20395;-81
2023/06/01 04:33:25;;;;;;;8.35;3.35;;;11.40;99.90;;;;;;5056631;28;20047;-81
2023/06/01 04:35:55;;;;;;;11.93;3.92;;;11.40;99.90;;;;;;5073458;28;20041;-81
2023/06/01 04:38:24;;;;;;;8.63;3.40;;;11.40;99.90;;;;;;5073203;28;20040;-81
2023/06/01 04:40:53;;;;;;;9.23;3.75;;;11.40;99.90;;;;;;5040364;28;20037;-81
2023/06/01 04:43:20;;;;;;;10.82;3.70;;;11.40;99.90;;;;;;5089631;28;20123;-81
2023/06/01 04:45:47;;;;;;;6.68;3.80;;;11.40;99.90;;;;;;5056495;28;20033;-81
2023/06/01 04:48:16;;;;;;;12.80;4.03;;;11.40;99.90;;;;;;5089097;28;20484;-81
2023/06/01 04:50:44;;;;;;;9.48;3.97;;;11.40;99.90;;;;;;5058330;28;20409;-81
2023/06/01 04:53:11;;;;;;;14.05;3.85;;;11.40;99.90;;;;;;5036706;28;20037;-81
2023/06/01 04:55:37;;;;;;;12.07;4.13;;;11.40;99.90;;;;;;5052838;28;20512;-80
2023/06/01 04:58:05;;;;;;;11.73;3.90;;;11.40;99.90;;;;;;5036585;28;20055;-81
2023/06/01 05:00:32;;;;;;;15.20;4.10;;;11.40;99.90;;;;;;5036127;28;20638;-81
2023/06/01 05:02:58;;;;;;;8.10;3.53;;;11.40;99.90;;;;;;5068895;28;20128;-81
2023/06/01 05:05:25;;;;;;;9.80;3.88;;;11.40;99.90;;;;;;5052347;28;20502;-81
2023/06/01 05:07:52;;;;;;;11.23;3.40;;;11.40;99.90;;;;;;5052729;28;20715;-80
2023/06/01 05:10:18;;;;;;;7.82;3.20;;;11.40;99.90;;;;;;5040193;28;20480;-81
2023/06/01 05:12:45;;;;;;;13.73;3.75;;;11.40;99.90;;;;;;5038944;28;20044;-80
2023/06/01 05:15:12;;;;;;;8.80;3.35;;;11.40;99.90;;;;;;5056212;28;20501;-82
2023/06/01 05:17:39;;;;;;;9.40;3.38;;;11.40;99.90;;;;;;5056770;28;20087;-81
2023/06/01 05:20:08;;;;;;;9.70;3.50;;;11.40;99.90;;;;;;5056898;28;20505;-81
2023/06/01 05:22:35;;;;;;;11.68;3.25;;;11.40;99.90;;;;;;5073980;28;20405;-81
2023/06/01 05:25:03;;;;;;;10.65;3.40;;;11.50;99.90;;;;;;5040601;28;20033;-81
2023/06/01 05:27:29;;;;;;;13.43;3.55;;;11.50;99.90;;;;;;5072624;28;20033;-81
2023/06/01 05:29:56;;;;;;;10.15;3.60;;;11.50;99.90;;;;;;5040120;28;20445;-81
2023/06/01 05:32:23;;;;;;;13.82;3.85;;;11.50;99.90;;;;;;5054713;28;20385;-81
2023/06/01 05:34:49;;;;;;;8.93;3.40;;;11.50;99.90;;;;;;5089129;28;20102;-81
2023/06/01 05:37:16;;;;;;;12.68;3.40;;;11.50;99.90;;;;;;5055949;28;20051;-81
2023/06/01 05:39:43;;;;;;;10.43;3.67;;;11.50;99.90;;;;;;5073119;28;20037;-81
2023/06/01 05:42:11;;;;;;;8.52;3.40;;;11.40;99.90;;;;;;5079593;28;20047;-81
2023/06/01 05:44:37;;;;;;;7.85;3.40;;;11.40;99.90;;;;;;5039511;28;20422;-81
2023/06/01 05:47:04;;;;;;;7.75;3.20;;;11.50;99.90;;;;;;5039788;28;20136;-81
2023/06/01 05:49:31;;;;;;;10.95;3.55;;;11.50;99.90;;;;;;5055863;28;20043;-81
2023/06/01 05:51:58;;;;;;;8.18;3.08;;;11.50;99.90;;;;;;5039852;28;20041;-81
2023/06/01 05:54:25;;;;;;;10.80;3.20;;;11.50;99.90;;;;;;5055560;28;20485;-80
2023/06/01 05:56:52;;;;;;;9.18;3.20;;;11.50;99.90;;;;;;5072091;28;20036;-80
2023/06/01 05:59:18;;;;;;;8.50;3.17;;;11.50;99.90;;;;;;5055437;28;20542;-82
2023/06/01 06:01:45;;;;;;;6.93;2.58;;;11.50;99.90;;;;;;5055584;28;20519;-81
2023/06/01 06:04:13;;;;;;;7.47;2.90;;;11.50;99.90;;;;;;5087120;28;20078;-82
2023/06/01 06:06:40;;;;;;;8.55;2.85;;;11.60;99.90;;;;;;5075205;28;20046;-82
2023/06/01 06:09:07;;;;;;;4.40;2.20;;;11.50;99.90;;;;;;5059415;28;20397;-82
2023/06/01 06:11:34;;;;;;;7.78;2.20;;;11.60;99.90;;;;;;5058475;28;20090;-82
2023/06/01 06:14:01;;;;;;;9.23;2.70;;;11.60;99.90;;;;;;5058898;28;20040;-82
2023/06/01 06:16:28;;;;;;;4.55;1.92;;;11.60;99.90;;;;;;5059024;28;20455;-82
2023/06/01 06:18:54;;;;;;;11.68;2.00;;;11.60;99.90;;;;;;5059091;28;20127;-82
2023/06/01 06:21:21;;;;;;;5.47;1.98;;;11.60;99.90;;;;;;5074592;28;20047;-82
2023/06/01 06:23:49;;;;;;;6.28;2.33;;;11.50;99.90;;;;;;5074179;28;20505;-82
2023/06/01 06:26:16;;;;;;;4.28;1.80;;;11.60;99.90;;;;;;5077287;28;20041;-82
2023/06/01 06:28:42;;;;;;;6.07;1.75;;;11.60;99.90;;;;;;5040376;28;20653;-82
2023/06/01 06:31:09;;;;;;;4.05;1.63;;;11.60;99.90;;;;;;5047810;28;20048;-82
2023/06/01 06:33:36;;;;;;;3.78;1.58;;;11.60;99.90;;;;;;5047124;28;20036;-82
2023/06/01 06:36:03;;;;;;;4.82;2.00;;;11.60;99.90;;;;;;5071683;28;20521;-82
2023/06/01 06:38:30;;;;;;;5.15;1.52;;;11.70;99.90;;;;;;5054777;28;20128;-82
2023/06/01 06:40:57;;;;;;;4.25;1.60;;;11.80;99.90;;;;;;5038716;28;20039;-82
2023/06/01 06:43:23;;;;;;;3.58;1.60;;;11.80;99.90;;;;;;5038843;28;20079;-81
2023/06/01 06:45:50;;;;;;;2.70;1.40;;;11.90;99.90;;;;;;5069001;28;20041;-82
2023/06/01 06:48:18;;;;;;;5.00;1.60;;;11.90;99.90;;;;;;5056689;28;20044;-82
2023/06/01 06:50:45;;;;;;;4.07;1.55;;;11.90;99.90;;;;;;5071184;28;20036;-82
2023/06/01 06:53:12;;;;;;;4.28;1.60;;;11.90;99.90;;;;;;5061810;28;20492;-82
2023/06/01 06:55:42;;;;;;;3.92;1.60;;;11.90;99.90;;;;;;5086553;28;20589;-81
2023/06/01 06:58:12;;;;;;;6.53;1.60;;;12.00;99.90;;;;;;5070836;28;20128;-82
2023/06/01 07:00:39;;;;;;;3.45;1.38;;;12.00;99.90;;;;;;5087365;28;20485;-81
2023/06/01 07:03:06;;;;;;;3.92;1.30;;;12.00;99.90;;;;;;5072757;28;20048;-80
2023/06/01 07:05:33;;;;;;;3.88;1.10;;;12.00;99.90;;;;;;5090451;28;20037;-80
2023/06/01 07:08:00;;;;;;;3.00;1.30;;;12.00;99.90;;;;;;5091180;28;20658;-81
2023/06/01 07:10:27;;;;;;;1.98;1.10;;;12.00;99.90;;;;;;5071271;28;20033;-81
2023/06/01 07:12:53;;;;;;;5.72;1.17;;;12.10;99.90;;;;;;5104595;28;20454;-81
2023/06/01 07:15:21;;;;;;;4.65;1.30;;;12.20;99.90;;;;;;5067329;28;20131;-81
2023/06/01 07:17:48;;;;;;;3.08;1.08;;;12.20;99.90;;;;;;5087045;28;20123;-81
2023/06/01 07:20:15;;;;;;;2.55;1.10;;;12.20;99.90;;;;;;5046484;28;20079;-82
2023/06/01 07:22:42;;;;;;;2.78;1.00;;;12.20;99.90;;;;;;5071440;28;20864;-81
2023/06/01 07:25:09;;;;;;;3.30;1.13;;;12.20;99.90;;;;;;5037731;28;20135;-82
2023/06/01 07:27:37;;;;;;;4.45;1.40;;;12.30;99.90;;;;;;5070025;28;20037;-82
2023/06/01 07:30:04;;;;;;;2.47;1.20;;;12.30;99.90;;;;;;5072712;28;20537;-81
2023/06/01 07:32:31;;;;;;;3.00;1.40;;;12.30;99.90;;;;;;5074026;28;20416;-82
2023/06/01 07:34:59;;;;;;;6.35;1.65;;;12.30;99.90;;;;;;5073307;28;20052;-82
2023/06/01 07:37:27;;;;;;;4.93;1.40;;;12.20;99.90;;;;;;5083275;28;20068;-82
2023/06/01 07:39:54;;;;;;;3.78;1.60;;;12.20;99.90;;;;;;5061216;28;20413;-81
2023/06/01 07:42:21;;;;;;;4.57;2.00;;;12.20;99.90;;;;;;5060704;28;20051;-81
2023/06/01 07:44:47;;;;;;;6.30;2.33;;;12.20;99.90;;;;;;5053399;28;20037;-81
2023/06/01 07:47:15;;;;;;;4.07;1.73;;;12.20;99.90;;;;;;5040861;28;20037;-81
2023/06/01 07:49:41;;;;;;;4.65;1.60;;;12.20;99.90;;;;;;5106144;28;20533;-82
2023/06/01 07:52:08;;;;;;;6.57;2.10;;;12.20;99.90;;;;;;5090268;28;20118;-81
2023/06/01 07:54:36;;;;;;;11.82;2.83;;;12.10;99.90;;;;;;5069941;28;20037;-82
2023/06/01 07:57:06;;;;;;;8.20;2.33;;;12.10;99.90;;;;;;5053887;28;20114;-82
2023/06/01 07:59:33;;;;;;;6.22;2.10;;;12.10;99.90;;;;;;5082876;28;20075;-82
2023/06/01 08:02:00;;;;;;;7.25;2.60;;;12.10;99.90;;;;;;5073343;28;20040;-82
2023/06/01 08:04:33;;;;;;;4.95;2.25;;;12.00;99.90;;;;;;5056841;28;20119;-82
2023/06/01 08:07:03;;;;;;;7.95;2.42;;;12.00;99.90;;;;;;5067166;28;20033;-82
2023/06/01 08:09:30;;;;;;;5.45;2.15;;;12.10;99.90;;;;;;5069669;28;20404;-82
2023/06/01 08:11:57;;;;;;;7.72;2.60;;;12.00;99.90;;;;;;5078583;28;20055;-82
2023/06/01 08:14:24;;;;;;;5.72;2.35;;;12.00;99.90;;;;;;5081502;28;20053;-82
2023/06/01 08:16:53;;;;;;;8.70;2.55;;;12.00;99.90;;;;;;5075825;28;20045;-82
2023/06/01 08:19:20;;;;;;;4.60;2.08;;;12.00;99.90;;;;;;5037134;28;20720;-82
2023/06/01 08:21:46;;;;;;;5.40;2.53;;;12.00;99.90;;;;;;5087542;28;20071;-83
2023/06/01 08:24:13;;;;;;;8.88;2.45;;;12.00;99.90;;;;;;5072870;28;20032;-82
2023/06/01 08:26:40;;;;;;;8.65;2.58;;;12.10;99.90;;;;;;5068396;28;20120;-83
2023/06/01 08:29:07;;;;;;;6.90;2.70;;;12.20;99.90;;;;;;5083660;28;20497;-82
2023/06/01 08:31:34;;;;;;;7.60;2.88;;;12.20;99.90;;;;;;5056425;28;20044;-82
2023/06/01 08:34:01;;;;;;;9.85;2.50;;;12.20;99.90;;;;;;5043430;28;20511;-82
2023/06/01 08:36:27;;;;;;;8.65;2.53;;;12.20;99.90;;;;;;5069220;28;20072;-82
2023/06/01 08:38:57;;;;;;;8.70;2.90;;;12.30;99.90;;;;;;5071535;28;20036;-82
2023/06/01 08:41:57;;;;;;;9.82;3.10;;;12.30;99.90;;;;;;5088979;28;20041;-82
2023/06/01 08:44:29;;;;;;;8.43;2.50;;;12.30;99.90;;;;;;5075769;28;20123;-82
2023/06/01 08:46:56;;;;;;;8.63;3.22;;;12.30;99.90;;;;;;5068666;28;20282;-82
2023/06/01 08:49:24;;;;;;;9.93;2.80;;;12.20;99.90;;;;;;5064789;28;20037;-82
2023/06/01 08:51:55;;;;;;;6.70;2.95;;;12.30;99.90;;;;;;5088825;28;20041;-82
2023/06/01 08:54:21;;;;;;;12.52;2.70;;;12.30;99.90;;;;;;5096123;28;20406;-82
2023/06/01 08:56:48;;;;;;;8.93;2.75;;;12.30;99.90;;;;;;5052383;28;20124;-82
2023/06/01 08:59:15;;;;;;;10.05;2.67;;;12.30;99.90;;;;;;5059948;28;20044;-82
2023/06/01 09:01:43;;;;;;;6.13;2.63;;;12.30;99.90;;;;;;5071871;28;20044;-82
2023/06/01 09:04:09;;;;;;;10.45;2.83;;;12.40;99.90;;;;;;5082266;28;20404;-82
2023/06/01 09:06:39;;;;;;;10.13;2.75;;;12.40;99.90;;;;;;5052426;28;20037;-82
2023/06/01 09:09:10;;;;;;;12.80;2.65;;;12.40;99.90;;;;;;5077503;28;20122;-81
2023/06/01 09:11:37;;;;;;;6.65;2.30;;;12.40;99.90;;;;;;5052968;28;20099;-81
2023/06/01 09:14:22;;;;;;;6.90;2.65;;;12.40;99.90;;;;;;5054723;28;20447;-80
2023/06/01 09:16:49;;;;;;;5.90;2.50;;;12.60;99.90;;;;;;5088403;28;20523;-80
2023/06/01 09:19:18;;;;;;;9.43;2.67;;;12.50;99.90;;;;;;5088063;28;20079;-80
2023/06/01 09:21:58;;;;;;;6.03;2.55;;;12.50;99.90;;;;;;5072032;28;20076;-81
2023/06/01 09:24:26;;;;;;;10.93;2.38;;;12.60;99.90;;;;;;5071818;28;20552;-81
2023/06/01 09:27:02;;;;;;;9.82;2.35;;;12.70;99.90;;;;;;5072151;28;20045;-81
2023/06/01 09:29:29;;;;;;;6.05;2.20;;;12.70;99.90;;;;;;5078584;28;20116;-80
2023/06/01 09:31:56;;;;;;;7.35;2.60;;;12.80;99.90;;;;;;5046397;28;20044;-81
2023/06/01 09:34:23;;;;;;;8.75;2.30;;;12.90;99.90;;;;;;5068424;28;20493;-80
2023/06/01 09:36:51;;;;;;;10.52;2.33;;;13.00;99.90;;;;;;5052006;28;20682;-81
2023/06/01 09:39:20;;;;;;;7.60;2.30;;;13.00;99.90;;;;;;5068445;28;20440;-81
2023/06/01 09:41:55;;;;;;;7.88;2.38;;;13.10;99.90;;;;;;5083785;28;20082;-81
2023/06/01 09:44:30;;;;;;;7.90;2.27;;;13.10;99.90;;;;;;5071202;28;20047;-81
2023/06/01 09:46:59;;;;;;;7.50;2.47;;;13.20;99.90;;;;;;5068049;28;20322;-81
2023/06/01 09:49:28;;;;;;;6.47;2.45;;;13.20;99.90;;;;;;5071483;28;20493;-81
2023/06/01 09:52:04;;;;;;;10.98;2.60;;;13.20;99.90;;;;;;5071449;28;20497;-82
2023/06/01 09:54:54;;;;;;;7.82;2.20;;;13.20;99.90;;;;;;5080121;28;20076;-82
2023/06/01 09:57:29;;;;;;;7.75;2.53;;;13.10;99.90;;;;;;5063867;28;20032;-81
2023/06/01 09:59:55;;;;;;;10.32;2.60;;;13.30;99.90;;;;;;5081039;28;20128;-82
2023/06/01 10:02:24;;;;;;;9.00;2.78;;;13.10;99.90;;;;;;5075089;28;20124;-81
2023/06/01 10:04:58;;;;;;;10.93;2.50;;;13.10;99.90;;;;;;5059599;28;20037;-81
2023/06/01 10:07:31;;;;;;;5.50;2.40;;;13.10;99.90;;;;;;5071745;28;20033;-82
2023/06/01 10:10:02;;;;;;;11.77;2.42;;;13.10;99.90;;;;;;5054929;28;20516;-82
2023/06/01 10:12:29;;;;;;;12.10;2.30;;;13.20;99.90;;;;;;5058992;28;20043;-81
2023/06/01 10:14:57;;;;;;;7.10;2.58;;;13.20;99.90;;;;;;5060492;28;20048;-81
2023/06/01 10:17:24;;;;;;;11.15;2.83;;;13.10;99.90;;;;;;5059999;28;20049;-82
2023/06/01 10:19:51;;;;;;;8.15;2.10;;;13.30;99.90;;;;;;5074808;28;20489;-82
2023/06/01 10:22:18;;;;;;;8.90;2.40;;;13.30;99.90;;;;;;5076911;28;20049;-82
2023/06/01 10:24:45;;;;;;;9.85;2.40;;;13.30;99.90;;;;;;5077050;28;20119;-82
2023/06/01 10:27:15;;;;;;;9.73;2.78;;;13.40;99.90;;;;;;5041212;28;20045;-81
2023/06/01 10:29:43;;;;;;;10.68;2.55;;;13.50;99.90;;;;;;5072000;28;20044;-81
2023/06/01 10:32:39;;;;;;;9.65;2.40;;;13.50;99.90;;;;;;5054996;28;20127;-81
2023/06/01 10:35:07;;;;;;;7.93;2.42;;;13.50;99.90;;;;;;5085213;28;20509;-82
2023/06/01 10:37:34;;;;;;;7.63;2.50;;;13.60;99.90;;;;;;5093465;28;20037;-83
2023/06/01 10:40:16;;;;;;;12.32;2.55;;;13.60;99.90;;;;;;5078353;28;20516;-83
2023/06/01 10:42:43;;;;;;;9.40;2.45;;;13.50;99.90;;;;;;5102340;28;20040;-82
2023/06/01 10:45:35;;;;;;;9.48;2.85;;;13.70;99.90;;;;;;5091015;28;20036;-83
2023/06/01 10:48:03;;;;;;;6.90;2.33;;;13.60;99.90;;;;;;5090690;28;20040;-82
2023/06/01 10:50:30;;;;;;;12.45;2.60;;;13.70;99.90;;;;;;5075106;28;20045;-83
2023/06/01 10:53:27;;;;;;;8.38;2.47;;;13.80;99.90;;;;;;5074619;28;20097;-83
2023/06/01 10:56:33;;;;;;;7.32;2.30;;;14.00;99.90;;;;;;5090989;28;20040;-83
2023/06/01 10:59:08;;;;;;;9.48;2.05;;;14.00;99.90;;;;;;5036826;28;20036;-83
2023/06/01 11:01:35;;;;;;;8.02;2.08;;;14.10;99.90;;;;;;5053701;28;20047;-83
2023/06/01 11:04:02;;;;;;;7.40;2.22;;;14.20;99.90;;;;;;5072083;28;20052;-82
2023/06/01 11:06:35;;;;;;;8.82;3.05;;;14.20;99.90;;;;;;5074448;28;20041;-83
2023/06/01 11:09:13;;;;;;;7.05;2.15;;;14.30;99.90;;;;;;5091184;28;20127;-83
2023/06/01 11:12:07;;;;;;;5.88;2.15;;;14.40;99.90;;;;;;5090900;28;20708;-83
2023/06/01 11:14:34;;;;;;;5.45;2.13;;;14.40;99.90;;;;;;5070148;28;20387;-82
2023/06/01 11:17:28;;;;;;;8.00;2.50;;;14.40;99.90;;;;;;5057002;28;20044;-82
2023/06/01 11:20:00;;;;;;;8.38;2.17;;;14.20;99.90;;;;;;5087360;28;20048;-83
2023/06/01 11:22:35;;;;;;;7.72;2.40;;;14.20;99.90;;;;;;5104004;28;20041;-83
2023/06/01 11:25:08;;;;;;;7.23;2.20;;;14.30;99.90;;;;;;5107073;28;20123;-83
2023/06/01 11:27:36;;;;;;;5.32;1.60;;;14.20;99.90;;;;;;5074500;28;20075;-83
2023/06/01 11:30:03;;;;;;;12.00;2.28;;;14.20;99.90;;;;;;5057481;28;20402;-83
2023/06/01 11:32:33;;;;;;;10.73;1.88;;;14.10;99.90;;;;;;5057736;28;20508;-83
2023/06/01 11:34:59;;;;;;;8.02;2.00;;;14.10;99.90;;;;;;5086462;28;20120;-83
2023/06/01 11:37:28;;;;;;;7.28;1.85;;;14.10;99.90;;;;;;5070653;28;20137;-83
2023/06/01 11:40:07;;;;;;;5.90;1.98;;;14.10;99.90;;;;;;5070571;28;20504;-83
2023/06/01 11:42:36;;;;;;;6.10;1.88;;;14.10;99.90;;;;;;5086847;28;20048;-83
2023/06/01 11:45:04;;;;;;;5.10;1.75;;;14.20;99.90;;;;;;5080786;28;20037;-83
2023/06/01 11:47:31;;;;;;;5.75;2.00;;;14.20;99.90;;;;;;5053938;28;20126;-83
2023/06/01 11:49:58;;;;;;;9.60;1.70;;;14.30;99.90;;;;;;5053439;28;20037;-84
2023/06/01 11:52:25;;;;;;;7.18;1.77;;;14.30;99.90;;;;;;5054079;28;20102;-83
2023/06/01 11:54:52;;;;;;;9.82;2.00;;;14.30;99.90;;;;;;5038730;28;20041;-83
2023/06/01 11:57:19;;;;;;;5.57;1.90;;;14.30;99.90;;;;;;5053403;28;20055;-83
2023/06/01 11:59:48;;;;;;;7.95;2.13;;;14.30;99.90;;;;;;5070295;28;20041;-83
2023/06/01 12:02:26;;;;;;;6.03;2.08;;;14.30;99.90;;;;;;5053109;28;20128;-83
2023/06/01 12:04:59;;;;;;;5.05;1.80;;;14.20;99.90;;;;;;5055860;28;20904;-83
2023/06/01 12:07:26;;;;;;;5.40;1.60;;;14.20;99.90;;;;;;5086447;28;20047;-83
2023/06/01 12:09:55;;;;;;;9.18;2.00;;;14.20;99.90;;;;;;5053540;28;20033;-83
2023/06/01 12:12:25;;;;;;;5.15;2.10;;;14.10;99.90;;;;;;5069686;28;20056;-83
2023/06/01 12:14:52;;;;;;;5.50;2.10;;;14.10;99.90;;;;;;5053211;28;20148;-83
2023/06/01 12:17:19;;;;;;;7.97;2.25;;;14.00;99.90;;;;;;5057354;28;20052;-83
2023/06/01 12:19:50;;;;;;;11.00;2.10;;;14.00;99.90;;;;;;5057539;28;20052;-83
2023/06/01 12:22:17;;;;;;;5.15;2.03;;;14.00;99.90;;;;;;5052247;28;20041;-83
2023/06/01 12:24:44;;;;;;;8.50;2.60;;;14.10;99.90;;;;;;5036673;28;20089;-83
2023/06/01 12:27:15;;;;;;;8.18;2.25;;;14.10;99.90;;;;;;5036491;28;20036;-84
2023/06/01 12:29:47;;;;;;;7.47;2.00;;;14.00;99.90;;;;;;5036826;28;20044;-83
2023/06/01 12:32:17;;;;;;;5.95;1.95;;;14.00;99.90;;;;;;5069774;28;20056;-83
2023/06/01 12:35:01;;;;;;;8.63;2.67;;;14.00;99.90;;;;;;5069477;28;20037;-83
2023/06/01 12:37:29;;;;;;;8.23;2.22;;;14.00;99.90;;;;;;5069129;28;20052;-82
2023/06/01 12:39:56;;;;;;;9.85;2.03;;;14.00;99.90;;;;;;5049124;28;20528;-83
2023/06/01 12:42:39;;;;;;;8.38;2.17;;;13.90;99.90;;;;;;5071678;28;20048;-82
2023/06/01 12:45:07;;;;;;;9.85;2.42;;;13.90;99.90;;;;;;5072973;28;20043;-83
2023/06/01 12:47:41;;;;;;;12.20;2.90;;;13.80;99.90;;;;;;5089181;28;20040;-83
2023/06/01 12:50:10;;;;;;;7.28;2.60;;;13.80;99.90;;;;;;5072719;28;20550;-83
2023/06/01 12:52:38;;;;;;;10.45;2.40;;;13.80;99.90;;;;;;5106340;28;20077;-83
2023/06/01 12:55:08;;;;;;;8.98;2.53;;;13.70;99.90;;;;;;5089480;28;20056;-82